Карточка аэропорта URMT

Внимание!
Информация на этой странице в стадии наполнения.
Если вы не увидели какой-то информации, или заметили неточность - пожалуйста сообщите нам!
Спасибо!
Команда RU-STAFF
Название аэропортаСтаврополь
Название аэропорта (англ.)Stavroipol
Превышение453 ft. (138.1 m.)
Координаты45°6.666', 42°6.7619999999998'
Высота перехода5000 ft
Эшелон переходаFL60 (QNH >= 1013); FL70 (QNH 977-1012); FL80 (QNH < 977)
Коды ответчика2430-2437
Зона ОрВДРостов-на-Дону РПИ (URRV)
Данные METARURMT 290800Z 25005MPS 9999 SCT040 20/13 Q1013 R25/150060 NOSIG RMK QFE721
Проноз погоды (TAF)
NOTAMshow/hide NOTAM
AWOS   TABLE

Информация о ВПП

ВПП Длина ВПП (м.) Покрытие Курс ВПП Частота ILS
072600Асфальтобетон68110.5
252600Асфальтобетон248110.7

Диспетчерские позиции

Позывной Наименование органа УВД Частота
URMT_APPСтаврополь-Подход121.050
URMT_TWRСтаврополь-Вышка120.9



Спутниковое изображение